createdAt,value
2023-03-12T00:01:20.136Z,-1.77
2023-03-12T00:03:47.902Z,-1.77
2023-03-12T00:06:15.120Z,-1.82
2023-03-12T00:08:42.163Z,-1.90
2023-03-12T00:11:12.259Z,-1.87
2023-03-12T00:13:39.746Z,-1.83
2023-03-12T00:16:16.013Z,-1.84
2023-03-12T00:18:43.919Z,-1.85
2023-03-12T00:21:11.061Z,-1.88
2023-03-12T00:23:37.561Z,-1.90
2023-03-12T00:26:06.963Z,-1.89
2023-03-12T00:28:35.010Z,-1.96
2023-03-12T00:31:02.538Z,-2.01
2023-03-12T00:33:29.477Z,-2.03
2023-03-12T00:36:01.693Z,-2.08
2023-03-12T00:38:28.193Z,-2.12
2023-03-12T00:40:54.731Z,-2.14
2023-03-12T00:43:21.382Z,-2.17
2023-03-12T00:45:47.926Z,-2.15
2023-03-12T00:48:14.570Z,-2.18
2023-03-12T00:50:41.103Z,-2.21
2023-03-12T00:53:07.969Z,-2.21
2023-03-12T00:55:34.517Z,-2.15
2023-03-12T00:58:00.984Z,-2.16
2023-03-12T01:00:27.878Z,-2.14
2023-03-12T01:02:55.377Z,-2.11
2023-03-12T01:05:21.892Z,-2.16
2023-03-12T01:07:48.332Z,-2.16
2023-03-12T01:10:17.454Z,-2.19
2023-03-12T01:12:44.001Z,-2.29
2023-03-12T01:15:16.673Z,-2.32
2023-03-12T01:17:43.267Z,-2.37
2023-03-12T01:20:10.881Z,-2.40
2023-03-12T01:22:37.553Z,-2.41
2023-03-12T01:25:04.178Z,-2.45
2023-03-12T01:27:30.672Z,-2.48
2023-03-12T01:29:57.093Z,-2.51
2023-03-12T01:32:23.806Z,-2.54
2023-03-12T01:34:50.214Z,-2.57
2023-03-12T01:37:16.593Z,-2.64
2023-03-12T01:39:43.006Z,-2.66
2023-03-12T01:42:09.459Z,-2.68
2023-03-12T01:45:01.672Z,-2.75
2023-03-12T01:47:32.013Z,-2.77
2023-03-12T01:50:00.598Z,-2.80
2023-03-12T01:52:35.868Z,-2.86
2023-03-12T01:55:09.478Z,-2.92
2023-03-12T01:58:02.369Z,-3.01
2023-03-12T02:00:28.921Z,-3.01
2023-03-12T02:03:00.471Z,-3.04
2023-03-12T02:05:30.301Z,-3.08
2023-03-12T02:07:57.550Z,-3.11
2023-03-12T02:10:26.098Z,-3.14
2023-03-12T02:12:53.204Z,-3.14
2023-03-12T02:15:19.881Z,-3.17
2023-03-12T02:17:46.363Z,-3.22
2023-03-12T02:20:39.443Z,-3.23
2023-03-12T02:23:31.961Z,-3.28
2023-03-12T02:26:01.355Z,-3.32
2023-03-12T02:28:29.852Z,-3.36
2023-03-12T02:31:03.388Z,-3.37
2023-03-12T02:33:29.892Z,-3.42
2023-03-12T02:35:56.704Z,-3.45
2023-03-12T02:38:37.505Z,-3.47
2023-03-12T02:41:11.614Z,-3.49
2023-03-12T02:43:39.084Z,-3.49
2023-03-12T02:46:08.118Z,-3.55
2023-03-12T02:48:34.729Z,-3.58
2023-03-12T02:51:03.315Z,-3.56
2023-03-12T02:53:30.095Z,-3.58
2023-03-12T02:55:56.714Z,-3.59
2023-03-12T02:58:23.102Z,-3.60
2023-03-12T03:00:49.694Z,-3.62
2023-03-12T03:03:16.245Z,-3.64
2023-03-12T03:05:42.682Z,-3.67
2023-03-12T03:08:09.355Z,-3.67
2023-03-12T03:10:35.827Z,-3.67
2023-03-12T03:13:02.300Z,-3.72
2023-03-12T03:15:29.790Z,-3.75
2023-03-12T03:17:56.412Z,-3.74
2023-03-12T03:20:24.648Z,-3.73
2023-03-12T03:22:51.038Z,-3.76
2023-03-12T03:25:18.178Z,-3.76
2023-03-12T03:27:44.679Z,-3.78
2023-03-12T03:30:11.991Z,-3.79
2023-03-12T03:32:38.682Z,-3.78
2023-03-12T03:35:05.740Z,-3.76
2023-03-12T03:37:32.128Z,-3.72
2023-03-12T03:39:58.832Z,-3.71
2023-03-12T03:42:25.727Z,-3.74
2023-03-12T03:44:52.093Z,-3.71
2023-03-12T03:47:18.577Z,-3.71
2023-03-12T03:49:45.134Z,-3.71
2023-03-12T03:52:11.515Z,-3.68
2023-03-12T03:54:37.877Z,-3.70
2023-03-12T03:57:04.582Z,-3.63
2023-03-12T03:59:31.106Z,-3.63
2023-03-12T04:01:57.504Z,-3.60
2023-03-12T04:04:23.941Z,-3.58
2023-03-12T04:06:50.414Z,-3.57
2023-03-12T04:09:16.892Z,-3.51
2023-03-12T04:11:43.539Z,-3.51
2023-03-12T04:14:10.143Z,-3.49
2023-03-12T04:16:36.526Z,-3.44
2023-03-12T04:19:03.047Z,-3.39
2023-03-12T04:21:29.562Z,-3.36
2023-03-12T04:23:56.016Z,-3.32
2023-03-12T04:26:22.535Z,-3.32
2023-03-12T04:28:49.077Z,-3.32
2023-03-12T04:31:15.663Z,-3.29
2023-03-12T04:33:42.181Z,-3.27
2023-03-12T04:36:08.942Z,-3.26
2023-03-12T04:38:35.407Z,-3.26
2023-03-12T04:41:11.287Z,-3.26
2023-03-12T04:43:37.991Z,-3.25
2023-03-12T04:46:06.070Z,-3.23
2023-03-12T04:48:33.098Z,-3.24
2023-03-12T04:50:59.607Z,-3.23
2023-03-12T04:53:26.130Z,-3.24
2023-03-12T04:55:52.647Z,-3.25
2023-03-12T04:58:20.453Z,-3.23
2023-03-12T05:00:48.285Z,-3.24
2023-03-12T05:03:14.835Z,-3.25
2023-03-12T05:05:41.359Z,-3.25
2023-03-12T05:08:07.898Z,-3.22
2023-03-12T05:10:34.390Z,-3.20
2023-03-12T05:13:00.809Z,-3.21
2023-03-12T05:15:28.404Z,-3.21
2023-03-12T05:17:55.025Z,-3.22
2023-03-12T05:20:21.575Z,-3.21
2023-03-12T05:22:48.031Z,-3.22
2023-03-12T05:25:14.540Z,-3.19
2023-03-12T05:27:40.963Z,-3.19
2023-03-12T05:30:08.093Z,-3.20
2023-03-12T05:32:34.493Z,-3.21
2023-03-12T05:35:00.878Z,-3.20
2023-03-12T05:37:27.430Z,-3.20
2023-03-12T05:39:54.625Z,-3.20
2023-03-12T05:42:21.202Z,-3.14
2023-03-12T05:44:47.769Z,-3.14
2023-03-12T05:47:14.306Z,-3.13
2023-03-12T05:49:40.898Z,-3.11
2023-03-12T05:52:07.554Z,-3.12
2023-03-12T05:54:34.135Z,-3.13
2023-03-12T05:57:00.615Z,-3.10
2023-03-12T05:59:27.111Z,-3.08
2023-03-12T06:01:53.730Z,-3.08
2023-03-12T06:04:20.387Z,-3.07
2023-03-12T06:06:47.343Z,-3.05
2023-03-12T06:09:13.903Z,-3.02
2023-03-12T06:11:40.425Z,-3.00
2023-03-12T06:14:06.971Z,-2.96
2023-03-12T06:16:33.571Z,-2.92
2023-03-12T06:19:02.670Z,-2.95
2023-03-12T06:21:32.654Z,-2.90
2023-03-12T06:24:00.007Z,-2.92
2023-03-12T06:26:27.476Z,-2.82
2023-03-12T06:28:54.832Z,-2.73
2023-03-12T06:31:21.822Z,-2.68
2023-03-12T06:33:48.953Z,-2.47
2023-03-12T06:36:15.566Z,-2.31
2023-03-12T06:38:42.124Z,-2.24
2023-03-12T06:41:11.613Z,-2.16
2023-03-12T06:43:39.202Z,-2.10
2023-03-12T06:46:08.554Z,-2.08
2023-03-12T06:48:41.338Z,-2.08
2023-03-12T06:51:10.605Z,-2.06
2023-03-12T06:53:37.285Z,-1.97
2023-03-12T06:56:04.205Z,-1.96
2023-03-12T06:58:31.250Z,-1.94
2023-03-12T07:00:57.926Z,-1.91
2023-03-12T07:03:24.517Z,-1.83
2023-03-12T07:05:51.991Z,-1.80
2023-03-12T07:08:19.667Z,-1.75
2023-03-12T07:10:46.193Z,-1.74
2023-03-12T07:13:13.674Z,-1.67
2023-03-12T07:15:40.706Z,-1.60
2023-03-12T07:18:11.470Z,-1.56
2023-03-12T07:20:39.972Z,-1.51
2023-03-12T07:23:06.965Z,-1.49
2023-03-12T07:25:40.079Z,-1.44
2023-03-12T07:28:07.867Z,-1.36
2023-03-12T07:30:34.609Z,-1.29
2023-03-12T07:33:02.819Z,-1.27
2023-03-12T07:35:30.143Z,-1.21
2023-03-12T07:37:57.123Z,-1.09
2023-03-12T07:40:23.668Z,-1.04
2023-03-12T07:42:51.114Z,-0.94
2023-03-12T07:45:18.404Z,-0.86
2023-03-12T07:47:45.118Z,-0.74
2023-03-12T07:50:12.566Z,-0.62
2023-03-12T07:52:39.230Z,-0.54
2023-03-12T07:55:07.624Z,-0.49
2023-03-12T07:57:34.090Z,-0.44
2023-03-12T08:00:00.700Z,-0.33
2023-03-12T08:02:28.302Z,-0.23
2023-03-12T08:04:54.928Z,-0.12
2023-03-12T08:07:21.684Z,-0.03
2023-03-12T08:09:49.437Z,0.00
2023-03-12T08:12:16.054Z,0.00
2023-03-12T08:14:42.822Z,0.00
2023-03-12T08:17:10.446Z,0.10
2023-03-12T08:19:37.405Z,0.17
2023-03-12T08:22:03.966Z,0.35
2023-03-12T08:24:30.395Z,0.57
2023-03-12T08:26:57.807Z,0.68
2023-03-12T08:29:25.601Z,0.74
2023-03-12T08:32:04.608Z,0.93
2023-03-12T08:34:35.479Z,1.22
2023-03-12T08:37:02.918Z,1.42
2023-03-12T08:39:29.552Z,1.55
2023-03-12T08:41:56.949Z,1.71
2023-03-12T08:44:24.747Z,1.78
2023-03-12T08:46:52.729Z,1.89
2023-03-12T08:49:21.377Z,1.96
2023-03-12T08:51:48.544Z,2.22
2023-03-12T08:54:16.020Z,2.62
2023-03-12T08:56:44.394Z,2.89
2023-03-12T08:59:11.583Z,3.10
2023-03-12T09:01:38.390Z,3.20
2023-03-12T09:04:05.682Z,3.20
2023-03-12T09:06:35.355Z,3.25
2023-03-12T09:09:05.085Z,3.36
2023-03-12T09:11:39.515Z,3.43
2023-03-12T09:14:49.831Z,3.26
2023-03-12T09:16:52.470Z,3.25
2023-03-12T09:19:19.012Z,3.17
2023-03-12T09:21:45.450Z,3.26
2023-03-12T09:24:12.216Z,3.34
2023-03-12T09:26:38.624Z,3.48
2023-03-12T09:29:05.550Z,3.75
2023-03-12T09:31:32.113Z,3.94
2023-03-12T09:33:58.637Z,4.07
2023-03-12T09:36:26.391Z,4.15
2023-03-12T09:38:52.837Z,3.95
2023-03-12T09:41:33.721Z,3.88
2023-03-12T09:44:10.181Z,3.80
2023-03-12T09:46:43.156Z,3.81
2023-03-12T09:49:40.693Z,3.85
2023-03-12T09:52:31.931Z,3.82
2023-03-12T09:55:17.176Z,3.91
2023-03-12T09:57:44.772Z,3.94
2023-03-12T10:00:14.389Z,4.04
2023-03-12T10:03:05.837Z,3.95
2023-03-12T10:05:34.979Z,3.81
2023-03-12T10:08:26.243Z,3.67
2023-03-12T10:11:02.856Z,3.56
2023-03-12T10:14:10.736Z,3.50
2023-03-12T10:16:54.608Z,3.51
2023-03-12T10:19:36.021Z,3.69
2023-03-12T10:22:15.694Z,3.83
2023-03-12T10:24:56.594Z,4.08
2023-03-12T10:27:27.990Z,4.32
2023-03-12T10:29:55.282Z,4.44
2023-03-12T10:32:45.854Z,4.49
2023-03-12T10:35:24.192Z,4.57
2023-03-12T10:38:04.499Z,4.52
2023-03-12T10:40:34.553Z,4.59
2023-03-12T10:43:02.523Z,4.60
2023-03-12T10:46:02.205Z,4.46
2023-03-12T10:48:28.667Z,4.37
2023-03-12T10:51:03.393Z,4.40
2023-03-12T10:53:33.226Z,4.36
2023-03-12T10:56:01.402Z,4.39
2023-03-12T10:58:35.024Z,4.42
2023-03-12T11:01:04.386Z,4.49
2023-03-12T11:03:31.775Z,4.54
2023-03-12T11:06:05.984Z,4.46
2023-03-12T11:08:35.720Z,4.43
2023-03-12T11:11:03.993Z,4.33
2023-03-12T11:13:30.341Z,4.29
2023-03-12T11:15:59.972Z,4.20
2023-03-12T11:18:30.307Z,4.10
2023-03-12T11:21:10.622Z,4.16
2023-03-12T11:23:43.877Z,4.21
2023-03-12T11:26:16.187Z,4.20
2023-03-12T11:28:56.252Z,4.16
2023-03-12T11:31:27.608Z,4.20
2023-03-12T11:34:03.606Z,4.18
2023-03-12T11:36:51.330Z,4.16
2023-03-12T11:39:43.884Z,4.12
2023-03-12T11:42:44.855Z,4.05
2023-03-12T11:45:26.354Z,3.85
2023-03-12T11:48:01.996Z,3.70
2023-03-12T11:50:45.938Z,3.58
2023-03-12T11:53:44.722Z,3.48
2023-03-12T11:56:37.752Z,3.44
2023-03-12T11:59:23.014Z,3.41
2023-03-12T12:02:04.485Z,3.46
2023-03-12T12:04:48.721Z,3.52
2023-03-12T12:07:39.981Z,3.54
2023-03-12T12:10:09.363Z,3.57
2023-03-12T12:13:22.247Z,3.59
2023-03-12T12:16:22.233Z,3.50
2023-03-12T12:19:18.242Z,3.53
2023-03-12T12:21:54.762Z,3.56
2023-03-12T12:24:30.986Z,3.64
2023-03-12T12:27:38.626Z,3.56
2023-03-12T12:30:47.055Z,3.49
2023-03-12T12:33:56.212Z,3.51
2023-03-12T12:36:27.345Z,3.52
2023-03-12T12:39:01.281Z,3.54
2023-03-12T12:41:34.662Z,3.52
2023-03-12T12:44:30.060Z,3.60
2023-03-12T12:47:03.839Z,3.56
2023-03-12T12:49:46.971Z,3.53
2023-03-12T12:52:20.062Z,3.53
2023-03-12T12:54:55.209Z,3.61
2023-03-12T12:57:53.978Z,3.64
2023-03-12T13:00:23.488Z,3.60
2023-03-12T13:02:51.264Z,3.59
2023-03-12T13:05:26.733Z,3.66
2023-03-12T13:07:53.450Z,3.64
2023-03-12T13:10:57.454Z,3.64
2023-03-12T13:13:29.298Z,3.59
2023-03-12T13:16:19.264Z,3.57
2023-03-12T13:19:07.425Z,3.60
2023-03-12T13:21:40.619Z,3.57
2023-03-12T13:24:32.022Z,3.63
2023-03-12T13:27:20.379Z,3.62
2023-03-12T13:29:47.012Z,3.64
2023-03-12T13:32:35.126Z,3.69
2023-03-12T13:35:32.492Z,3.74
2023-03-12T13:38:04.970Z,3.74
2023-03-12T13:40:32.701Z,3.79
2023-03-12T13:43:08.161Z,3.78
2023-03-12T13:45:55.574Z,3.82
2023-03-12T13:48:24.931Z,3.85
2023-03-12T13:51:18.964Z,3.90
2023-03-12T13:53:52.789Z,3.86
2023-03-12T13:56:26.292Z,3.88
2023-03-12T13:59:06.838Z,3.91
2023-03-12T14:01:40.939Z,3.92
2023-03-12T14:04:20.365Z,3.92
2023-03-12T14:07:06.289Z,3.95
2023-03-12T14:09:45.866Z,3.95
2023-03-12T14:12:43.411Z,3.98
2023-03-12T14:15:27.357Z,3.99
2023-03-12T14:18:12.362Z,4.00
2023-03-12T14:20:39.921Z,3.97
2023-03-12T14:23:13.068Z,3.96
2023-03-12T14:25:43.607Z,4.01
2023-03-12T14:28:29.067Z,3.98
2023-03-12T14:31:08.419Z,3.94
2023-03-12T14:33:58.229Z,3.95
2023-03-12T14:36:45.073Z,3.93
2023-03-12T14:39:55.731Z,3.94
2023-03-12T14:42:34.428Z,3.89
2023-03-12T14:45:18.010Z,3.88
2023-03-12T14:47:52.572Z,3.79
2023-03-12T14:50:40.409Z,3.85
2023-03-12T14:53:29.329Z,3.81
2023-03-12T14:56:05.268Z,3.78
2023-03-12T14:58:34.264Z,3.84
2023-03-12T15:01:12.348Z,3.83
2023-03-12T15:03:48.144Z,3.87
2023-03-12T15:06:38.434Z,3.85
2023-03-12T15:09:07.070Z,3.86
2023-03-12T15:11:36.720Z,3.86
2023-03-12T15:14:11.852Z,3.91
2023-03-12T15:16:38.587Z,3.86
2023-03-12T15:19:05.263Z,3.86
2023-03-12T15:21:36.195Z,3.86
2023-03-12T15:24:03.572Z,3.90
2023-03-12T15:26:34.457Z,3.88
2023-03-12T15:29:26.724Z,3.89
2023-03-12T15:32:14.191Z,3.99
2023-03-12T15:34:41.898Z,3.94
2023-03-12T15:37:38.649Z,3.92
2023-03-12T15:40:19.727Z,3.94
2023-03-12T15:42:47.800Z,3.94
2023-03-12T15:45:24.453Z,4.02
2023-03-12T15:47:53.563Z,3.97
2023-03-12T15:50:25.755Z,3.93
2023-03-12T15:53:18.542Z,3.88
2023-03-12T15:56:07.571Z,3.92
2023-03-12T15:58:35.058Z,3.94
2023-03-12T16:01:16.575Z,4.02
2023-03-12T16:03:45.560Z,4.00
2023-03-12T16:06:20.809Z,3.96
2023-03-12T16:08:53.082Z,3.90
2023-03-12T16:11:22.866Z,3.89
2023-03-12T16:13:52.036Z,3.91
2023-03-12T16:16:18.954Z,3.85
2023-03-12T16:18:45.436Z,3.85
2023-03-12T16:21:12.806Z,3.85
2023-03-12T16:23:39.783Z,3.81
2023-03-12T16:26:06.978Z,3.78
2023-03-12T16:28:36.233Z,3.76
2023-03-12T16:31:03.310Z,3.77
2023-03-12T16:33:29.834Z,3.73
2023-03-12T16:35:57.065Z,3.71
2023-03-12T16:38:23.571Z,3.72
2023-03-12T16:40:51.920Z,3.78
2023-03-12T16:43:24.565Z,3.80
2023-03-12T16:45:52.803Z,3.80
2023-03-12T16:48:23.037Z,3.74
2023-03-12T16:50:55.932Z,3.76
2023-03-12T16:53:23.495Z,3.78
2023-03-12T16:55:53.604Z,3.72
2023-03-12T16:58:21.347Z,3.70
2023-03-12T17:00:49.138Z,3.72
2023-03-12T17:03:36.446Z,3.73
2023-03-12T17:06:05.520Z,3.73
2023-03-12T17:08:32.154Z,3.68
2023-03-12T17:10:59.936Z,3.63
2023-03-12T17:13:28.569Z,3.63
2023-03-12T17:15:55.698Z,3.68
2023-03-12T17:18:22.493Z,3.68
2023-03-12T17:20:51.818Z,3.69
2023-03-12T17:23:18.890Z,3.64
2023-03-12T17:25:46.008Z,3.67
2023-03-12T17:28:13.689Z,3.64
2023-03-12T17:30:40.407Z,3.66
2023-03-12T17:33:10.682Z,3.63
2023-03-12T17:35:37.903Z,3.64
2023-03-12T17:38:06.424Z,3.63
2023-03-12T17:40:32.982Z,3.64
2023-03-12T17:42:59.515Z,3.57
2023-03-12T17:45:26.802Z,3.57
2023-03-12T17:47:53.313Z,3.59
2023-03-12T17:50:19.972Z,3.58
2023-03-12T17:52:46.479Z,3.58
2023-03-12T17:55:15.074Z,3.51
2023-03-12T17:57:42.581Z,3.57
2023-03-12T18:00:12.777Z,3.57
2023-03-12T18:02:41.449Z,3.52
2023-03-12T18:05:10.095Z,3.45
2023-03-12T18:07:37.080Z,3.43
2023-03-12T18:10:06.457Z,3.40
2023-03-12T18:12:33.764Z,3.39
2023-03-12T18:15:00.659Z,3.29
2023-03-12T18:17:27.124Z,3.30
2023-03-12T18:19:53.579Z,3.29
2023-03-12T18:22:20.098Z,3.26
2023-03-12T18:24:47.776Z,3.27
2023-03-12T18:27:14.319Z,3.28
2023-03-12T18:29:41.238Z,3.23
2023-03-12T18:32:08.939Z,3.27
2023-03-12T18:34:35.811Z,3.25
2023-03-12T18:37:02.338Z,3.20
2023-03-12T18:39:28.818Z,3.19
2023-03-12T18:41:55.845Z,3.19
2023-03-12T18:44:22.487Z,3.27
2023-03-12T18:46:50.864Z,3.21
2023-03-12T18:49:17.814Z,3.15
2023-03-12T18:51:44.315Z,3.07
2023-03-12T18:54:12.527Z,3.17
2023-03-12T18:56:40.937Z,3.13
2023-03-12T18:59:09.806Z,3.16
2023-03-12T19:01:36.495Z,3.14
2023-03-12T19:04:03.058Z,3.11
2023-03-12T19:06:33.104Z,3.03
2023-03-12T19:09:09.603Z,3.04
2023-03-12T19:11:36.172Z,3.04
2023-03-12T19:14:03.310Z,3.05
2023-03-12T19:16:31.033Z,2.99
2023-03-12T19:18:57.822Z,2.99
2023-03-12T19:21:24.229Z,2.98
2023-03-12T19:23:50.767Z,2.97
2023-03-12T19:26:17.112Z,2.94
2023-03-12T19:28:43.850Z,2.94
2023-03-12T19:31:13.495Z,2.92
2023-03-12T19:33:41.850Z,2.95
2023-03-12T19:36:09.122Z,2.92
2023-03-12T19:38:35.676Z,2.89
2023-03-12T19:41:02.260Z,2.86
2023-03-12T19:43:28.705Z,2.90
2023-03-12T19:45:55.878Z,2.89
2023-03-12T19:48:25.371Z,2.88
2023-03-12T19:50:53.775Z,2.89
2023-03-12T19:53:20.777Z,2.88
2023-03-12T19:55:48.877Z,2.92
2023-03-12T19:58:16.246Z,2.91
2023-03-12T20:00:43.556Z,2.88
2023-03-12T20:03:10.452Z,2.89
2023-03-12T20:05:37.088Z,2.84
2023-03-12T20:08:03.810Z,2.83
2023-03-12T20:10:32.187Z,2.83
2023-03-12T20:12:59.642Z,2.85
2023-03-12T20:15:32.114Z,2.80
2023-03-12T20:17:58.637Z,2.82
2023-03-12T20:20:25.693Z,2.80
2023-03-12T20:22:54.057Z,2.81
2023-03-12T20:25:28.496Z,2.82
2023-03-12T20:27:56.631Z,2.83
2023-03-12T20:30:23.273Z,2.84
2023-03-12T20:32:49.738Z,2.81
2023-03-12T20:35:18.432Z,2.80
2023-03-12T20:37:46.113Z,2.82
2023-03-12T20:40:13.800Z,2.86
2023-03-12T20:42:41.565Z,2.82
2023-03-12T20:45:10.559Z,2.78
2023-03-12T20:47:40.078Z,2.80
2023-03-12T20:50:07.736Z,2.81
2023-03-12T20:52:34.288Z,2.84
2023-03-12T20:55:00.798Z,2.85
2023-03-12T20:57:27.332Z,2.87
2023-03-12T20:59:53.732Z,2.89
2023-03-12T21:02:20.179Z,2.86
2023-03-12T21:04:46.782Z,2.84
2023-03-12T21:07:13.229Z,2.83
2023-03-12T21:09:39.764Z,2.83
2023-03-12T21:12:06.304Z,2.87
2023-03-12T21:14:32.762Z,2.87
2023-03-12T21:16:59.445Z,2.91
2023-03-12T21:19:29.536Z,2.92
2023-03-12T21:21:56.065Z,2.91
2023-03-12T21:24:23.596Z,2.89
2023-03-12T21:26:50.070Z,2.86
2023-03-12T21:29:16.478Z,2.86
2023-03-12T21:31:44.109Z,2.84
2023-03-12T21:34:10.622Z,2.82
2023-03-12T21:36:37.033Z,2.87
2023-03-12T21:39:03.666Z,2.92
2023-03-12T21:41:30.269Z,2.91
2023-03-12T21:44:01.227Z,2.92
2023-03-12T21:46:29.941Z,2.90
2023-03-12T21:48:57.741Z,2.91
2023-03-12T21:51:26.072Z,2.97
2023-03-12T21:53:57.715Z,2.99
2023-03-12T21:56:28.850Z,2.96
2023-03-12T21:58:57.182Z,2.95
2023-03-12T22:01:23.833Z,2.95
2023-03-12T22:03:50.389Z,2.99
2023-03-12T22:06:17.221Z,2.99
2023-03-12T22:08:44.706Z,2.96
2023-03-12T22:11:11.134Z,2.97
2023-03-12T22:13:37.558Z,3.00
2023-03-12T22:16:07.545Z,2.99
2023-03-12T22:18:38.193Z,2.95
2023-03-12T22:21:05.435Z,2.99
2023-03-12T22:23:32.184Z,2.97
2023-03-12T22:26:03.924Z,2.98
2023-03-12T22:28:31.482Z,3.01
2023-03-12T22:31:03.322Z,2.98
2023-03-12T22:33:30.085Z,3.00
2023-03-12T22:35:57.097Z,2.98
2023-03-12T22:38:24.899Z,2.91
2023-03-12T22:40:53.180Z,2.93
2023-03-12T22:43:21.573Z,2.95
2023-03-12T22:45:52.972Z,2.92
2023-03-12T22:48:19.411Z,2.96
2023-03-12T22:50:53.309Z,2.97
2023-03-12T22:53:19.783Z,2.94
2023-03-12T22:55:46.306Z,2.93
2023-03-12T22:58:13.130Z,2.91
2023-03-12T23:00:39.511Z,2.93
2023-03-12T23:03:05.921Z,3.06
2023-03-12T23:05:32.442Z,3.01
2023-03-12T23:07:58.811Z,2.96
2023-03-12T23:10:25.269Z,2.98
2023-03-12T23:12:51.715Z,2.96
2023-03-12T23:15:19.805Z,2.96
2023-03-12T23:17:46.288Z,2.98
2023-03-12T23:20:13.381Z,2.98
2023-03-12T23:22:39.794Z,2.99
2023-03-12T23:25:06.564Z,3.08
2023-03-12T23:27:32.972Z,3.14
2023-03-12T23:29:59.428Z,3.11
2023-03-12T23:32:25.897Z,3.10
2023-03-12T23:34:52.396Z,3.04
2023-03-12T23:37:18.916Z,3.06
2023-03-12T23:39:54.489Z,3.05
2023-03-12T23:42:21.489Z,3.05
2023-03-12T23:44:47.963Z,3.03
2023-03-12T23:47:14.454Z,3.03
2023-03-12T23:49:40.840Z,3.06
2023-03-12T23:52:07.339Z,3.08
2023-03-12T23:54:33.724Z,3.03
2023-03-12T23:57:00.204Z,3.01
2023-03-12T23:59:26.690Z,3.02
